KBTM

Bert Mooney Airport

Butte, Montana, USA
METAR KBTM 241453Z AUTO 29004KT 10SM OVC025 12/07 A3021 RMK AO2 SLP203 T01170072 51008 $
Observed Flight Rules
Jun-24 @ 14:53 UTC (14 minutes ago) Marginal Visual Flight Rules
Wind Visibility Clouds
290° at 4 knots 10 miles
  • Overcast at 2,500' AGL
Temperatures Readings
Current 12°C / 54°F
Dewpoint 7°C / 45°F
Humidity 72%
Altimeter 30.21" Hg
Pressure 1020.3 hPa
Elevation 1688
METAR KBTM 241453Z AUTO 29004KT 10SM OVC025 12/07 A3021 RMK AO2 SLP203 T01170072 51008 $
Observed Flight Rules
Jun-24 @ 14:53 UTC
(14 minutes ago)
MVFR
Wind Visibility
290° at 4 knots 10 miles
Clouds
  • Overcast at 2,500' AGL
Temperature Dewpoint
12°C / 54°F 7°C / 45°F
Humidity Altimeter Pressure
72% 30.21" Hg 1020.3 hPa